Time;durP1;ratioP1;P1;durP2;ratioP2;P2;SDS_P1;SDS_P2;PMS_P1;PMS_P2;Temp;Humidity;BMP_temperature;BMP_pressure;BME280_temperature;BME280_humidity;BME280_pressure;Samples;Min_cycle;Max_cycle;Signal;HPM_P1;HPM_P2
2023/12/09 00:01:56;;;;;;;52.83;13.82;;;;;;;7.56;100.00;101130.91;5210771;28;20036;-72
2023/12/09 00:04:26;;;;;;;53.08;13.60;;;;;;;7.52;100.00;101128.50;5212683;28;20033;-73
2023/12/09 00:06:57;;;;;;;55.17;13.43;;;;;;;7.53;100.00;101129.38;5206069;28;20551;-72
2023/12/09 00:09:27;;;;;;;61.22;14.55;;;;;;;7.48;100.00;101126.25;5209194;28;20037;-72
2023/12/09 00:11:58;;;;;;;57.05;13.00;;;;;;;7.45;100.00;101114.06;5208558;28;20091;-72
2023/12/09 00:14:28;;;;;;;74.53;15.25;;;;;;;7.40;100.00;101115.47;5211570;28;20388;-72
2023/12/09 00:16:59;;;;;;;42.20;13.43;;;;;;;7.46;100.00;101110.41;5208944;28;20032;-72
2023/12/09 00:19:29;;;;;;;73.32;15.60;;;;;;;7.43;100.00;101108.03;5208051;28;20071;-72
2023/12/09 00:22:00;;;;;;;56.90;13.68;;;;;;;7.41;100.00;101099.28;5210159;28;20025;-72
2023/12/09 00:24:30;;;;;;;56.88;12.77;;;;;;;7.40;100.00;101102.94;5213654;28;20024;-72
2023/12/09 00:27:01;;;;;;;50.40;14.07;;;;;;;7.37;100.00;101100.53;5207130;28;20052;-72
2023/12/09 00:29:31;;;;;;;62.42;14.45;;;;;;;7.35;100.00;101088.34;5208613;28;20025;-72
2023/12/09 00:32:02;;;;;;;53.47;13.57;;;;;;;7.39;100.00;101092.44;5210711;28;20116;-72
2023/12/09 00:34:33;;;;;;;53.58;12.52;;;;;;;7.35;100.00;101083.84;5209358;28;20059;-72
2023/12/09 00:37:03;;;;;;;54.13;12.05;;;;;;;7.42;100.00;101086.78;5208827;28;20203;-72
2023/12/09 00:39:34;;;;;;;62.90;14.35;;;;;;;7.39;100.00;101081.75;5212208;28;20476;-72
2023/12/09 00:42:04;;;;;;;54.22;13.27;;;;;;;7.40;100.00;101094.94;5210476;28;20026;-72
2023/12/09 00:44:35;;;;;;;57.47;13.32;;;;;;;7.44;100.00;101098.19;5211116;28;20052;-72
2023/12/09 00:47:05;;;;;;;54.85;13.32;;;;;;;7.48;100.00;101087.09;5209764;28;20029;-72
2023/12/09 00:49:36;;;;;;;66.65;13.15;;;;;;;7.50;100.00;101101.13;5209840;28;20518;-72
2023/12/09 00:52:06;;;;;;;55.83;12.73;;;;;;;7.46;100.00;101096.22;5207521;28;20028;-71
2023/12/09 00:54:37;;;;;;;53.72;12.75;;;;;;;7.45;100.00;101102.53;5210744;28;20123;-72
2023/12/09 00:57:07;;;;;;;53.97;12.75;;;;;;;7.38;100.00;101104.94;5206073;28;20037;-73
2023/12/09 00:59:38;;;;;;;48.72;12.73;;;;;;;7.30;100.00;101088.75;5212217;28;20463;-72
2023/12/09 01:02:08;;;;;;;42.03;11.57;;;;;;;7.21;100.00;101078.91;5209247;28;20298;-72
2023/12/09 01:04:39;;;;;;;49.42;12.63;;;;;;;7.19;100.00;101073.72;5206277;28;20092;-71
2023/12/09 01:07:09;;;;;;;50.88;13.88;;;;;;;7.21;100.00;101070.91;5208838;28;20029;-72
2023/12/09 01:09:40;;;;;;;50.45;12.30;;;;;;;7.14;100.00;101064.44;5208898;28;20024;-71
2023/12/09 01:12:11;;;;;;;39.95;11.57;;;;;;;7.08;100.00;101060.50;5209655;28;20539;-71
2023/12/09 01:14:41;;;;;;;48.55;13.82;;;;;;;7.09;100.00;101069.34;5210056;28;20025;-72
2023/12/09 01:17:12;;;;;;;48.25;13.00;;;;;;;7.03;100.00;101052.09;5207630;28;20064;-72
2023/12/09 01:19:42;;;;;;;60.78;13.15;;;;;;;7.06;100.00;101046.44;5211486;28;20094;-72
2023/12/09 01:22:13;;;;;;;52.90;13.10;;;;;;;7.10;100.00;101047.03;5207627;28;20021;-72
2023/12/09 01:24:43;;;;;;;54.35;14.25;;;;;;;7.07;100.00;101042.78;5208329;28;20035;-72
2023/12/09 01:27:14;;;;;;;46.03;12.05;;;;;;;7.03;100.00;101048.53;5211537;28;20028;-72
2023/12/09 01:29:44;;;;;;;66.43;13.57;;;;;;;6.97;100.00;101042.78;5208384;28;20022;-72
2023/12/09 01:32:15;;;;;;;63.22;13.75;;;;;;;7.03;100.00;101040.53;5209025;28;20105;-71
2023/12/09 01:34:45;;;;;;;57.92;14.88;;;;;;;7.06;100.00;101037.59;5208987;28;20032;-72
2023/12/09 01:37:16;;;;;;;58.03;14.00;;;;;;;7.02;100.00;101031.69;5210671;28;20025;-72
2023/12/09 01:39:46;;;;;;;52.63;11.43;;;;;;;6.99;100.00;101040.00;5208788;28;20129;-72
2023/12/09 01:42:17;;;;;;;61.03;13.00;;;;;;;6.95;100.00;101030.59;5208316;28;20548;-72
2023/12/09 01:44:47;;;;;;;55.53;12.75;;;;;;;6.90;100.00;101049.66;5209963;28;20039;-72
2023/12/09 01:47:18;;;;;;;56.10;12.77;;;;;;;6.93;100.00;101041.41;5210169;28;20029;-72
2023/12/09 01:49:49;;;;;;;51.45;12.05;;;;;;;6.90;100.00;101041.66;5209879;28;20090;-73
2023/12/09 01:52:20;;;;;;;50.35;11.65;;;;;;;6.91;100.00;101047.84;5207635;28;20021;-72
2023/12/09 01:54:51;;;;;;;51.22;11.48;;;;;;;6.97;100.00;101033.94;5211312;28;20021;-73
2023/12/09 01:57:21;;;;;;;48.58;11.48;;;;;;;6.89;100.00;101041.81;5206970;28;20036;-73
2023/12/09 01:59:53;;;;;;;52.53;12.95;;;;;;;6.95;100.00;101030.59;5210770;28;20481;-72
2023/12/09 02:02:23;;;;;;;53.75;12.52;;;;;;;6.97;100.00;101032.13;5213789;28;20075;-73
2023/12/09 02:04:55;;;;;;;46.20;11.45;;;;;;;6.91;100.00;101027.34;5208764;28;20040;-72
2023/12/09 02:07:25;;;;;;;48.63;11.82;;;;;;;6.89;100.00;101023.13;5213049;28;20083;-72
2023/12/09 02:09:56;;;;;;;63.28;12.63;;;;;;;7.05;100.00;101025.25;5208964;28;20017;-72
2023/12/09 02:12:36;;;;;;;47.65;10.27;;;;;;;6.99;100.00;101024.84;5209489;28;20029;-74
2023/12/09 02:15:11;;;;;;;49.92;11.07;;;;;;;6.93;100.00;101012.06;5209920;28;20021;-74
2023/12/09 02:17:49;;;;;;;63.58;12.55;;;;;;;6.95;100.00;101020.75;5209744;28;20074;-74
2023/12/09 02:20:20;;;;;;;53.05;12.23;;;;;;;6.98;100.00;101015.16;5206345;28;20049;-74
2023/12/09 02:23:05;;;;;;;41.30;10.07;;;;;;;6.93;100.00;101009.38;5209223;28;20821;-74
2023/12/09 02:25:37;;;;;;;45.20;11.38;;;;;;;6.91;100.00;101008.66;5210175;28;20522;-74
2023/12/09 02:28:14;;;;;;;45.88;10.55;;;;;;;7.00;100.00;100999.00;5207905;28;20068;-74
2023/12/09 02:30:51;;;;;;;59.75;12.50;;;;;;;7.13;100.00;100983.56;5208109;28;20472;-74
2023/12/09 02:33:23;;;;;;;45.03;10.65;;;;;;;7.12;100.00;100994.34;5204278;28;20036;-74
2023/12/09 02:35:55;;;;;;;43.15;11.23;;;;;;;7.10;100.00;100994.50;5208254;28;20028;-74
2023/12/09 02:38:27;;;;;;;62.35;12.25;;;;;;;7.09;100.00;101003.50;5209414;28;20026;-74
2023/12/09 02:40:58;;;;;;;51.25;11.63;;;;;;;7.11;100.00;100995.34;5209199;28;20049;-74
2023/12/09 02:43:29;;;;;;;50.03;9.75;;;;;;;7.15;100.00;100999.44;5207612;28;20544;-74
2023/12/09 02:46:00;;;;;;;53.83;10.63;;;;;;;7.07;100.00;100999.28;5206894;28;20396;-74
2023/12/09 02:48:31;;;;;;;47.33;9.65;;;;;;;7.11;100.00;100995.34;5211709;28;20029;-74
2023/12/09 02:51:01;;;;;;;44.65;10.95;;;;;;;7.06;100.00;100989.59;5206873;28;20033;-74
2023/12/09 02:53:32;;;;;;;55.08;11.80;;;;;;;7.05;100.00;100993.25;5201068;28;20124;-74
2023/12/09 02:56:03;;;;;;;49.75;10.60;;;;;;;7.09;100.00;100989.31;5208128;28;20025;-74
2023/12/09 02:58:33;;;;;;;57.55;10.85;;;;;;;7.21;100.00;100986.34;5210271;28;20041;-74
2023/12/09 03:01:07;;;;;;;36.83;10.07;;;;;;;7.18;100.00;100983.16;5208716;28;20047;-74
2023/12/09 03:03:39;;;;;;;46.42;10.27;;;;;;;7.18;100.00;100975.16;5205840;28;20072;-74
2023/12/09 03:06:09;;;;;;;49.28;9.38;;;;;;;7.17;100.00;100973.44;5209034;28;20029;-74
2023/12/09 03:08:40;;;;;;;38.25;10.75;;;;;;;7.11;100.00;100971.34;5204842;28;20100;-74
2023/12/09 03:11:10;;;;;;;56.60;11.93;;;;;;;7.12;100.00;100965.00;5208990;28;20162;-74
2023/12/09 03:13:41;;;;;;;43.25;10.07;;;;;;;7.18;100.00;100962.63;5209338;28;20131;-74
2023/12/09 03:16:12;;;;;;;50.97;11.13;;;;;;;7.15;100.00;100962.91;5209821;28;20029;-74
2023/12/09 03:18:42;;;;;;;43.60;11.43;;;;;;;7.14;100.00;100958.56;5209314;28;20017;-74
2023/12/09 03:21:16;;;;;;;53.90;11.50;;;;;;;7.10;100.00;100949.16;5207366;28;20128;-74
2023/12/09 03:23:46;;;;;;;41.67;9.93;;;;;;;7.08;100.00;100947.59;5206364;28;20143;-74
2023/12/09 03:26:18;;;;;;;37.30;11.13;;;;;;;7.01;100.00;100950.84;5204438;28;20025;-74
2023/12/09 03:28:49;;;;;;;39.38;10.35;;;;;;;7.08;100.00;100952.94;5210080;28;20484;-74
2023/12/09 03:31:20;;;;;;;54.80;11.10;;;;;;;7.11;100.00;100945.50;5207299;28;20014;-74
2023/12/09 03:33:50;;;;;;;41.30;10.05;;;;;;;7.13;100.00;100948.00;5208835;28;20411;-74
2023/12/09 03:36:21;;;;;;;44.60;9.77;;;;;;;7.13;100.00;100946.22;5211037;28;20034;-74
2023/12/09 03:38:51;;;;;;;41.40;9.25;;;;;;;7.05;100.00;100932.72;5206976;28;20399;-74
2023/12/09 03:41:22;;;;;;;61.47;12.38;;;;;;;7.08;100.00;100926.25;5210377;28;20053;-74
2023/12/09 03:43:52;;;;;;;48.53;10.73;;;;;;;7.04;100.00;100920.38;5206759;28;20059;-74
2023/12/09 03:46:23;;;;;;;48.20;9.43;;;;;;;7.03;100.00;100915.16;5204094;28;20547;-74
2023/12/09 03:48:54;;;;;;;60.55;10.02;;;;;;;6.89;100.00;100916.47;5207694;28;20025;-74
2023/12/09 03:51:24;;;;;;;48.78;9.00;;;;;;;6.91;100.00;100912.66;5208136;28;20064;-74
2023/12/09 03:53:55;;;;;;;58.33;13.15;;;;;;;6.97;100.00;100914.75;5208695;28;20086;-74
2023/12/09 03:56:25;;;;;;;52.60;9.60;;;;;;;7.10;100.00;100910.97;5204982;28;20033;-74
2023/12/09 03:58:56;;;;;;;48.92;10.63;;;;;;;7.05;100.00;100905.22;5207175;28;20030;-74
2023/12/09 04:01:26;;;;;;;46.53;10.20;;;;;;;7.12;100.00;100912.50;5210877;28;20025;-74
2023/12/09 04:03:57;;;;;;;49.38;9.43;;;;;;;7.18;100.00;100913.78;5209809;28;20392;-74
2023/12/09 04:06:27;;;;;;;37.90;8.82;;;;;;;7.05;100.00;100898.06;5208994;28;20510;-73
2023/12/09 04:08:58;;;;;;;53.60;9.23;;;;;;;7.04;100.00;100899.03;5200285;28;20026;-74
2023/12/09 04:11:28;;;;;;;42.55;10.10;;;;;;;7.05;100.00;100898.06;5210575;28;20033;-74
2023/12/09 04:13:59;;;;;;;44.50;11.77;;;;;;;7.09;100.00;100895.94;5208101;28;20033;-74
2023/12/09 04:16:29;;;;;;;44.47;10.60;;;;;;;7.15;100.00;100879.38;5209152;28;20028;-73
2023/12/09 04:19:00;;;;;;;46.65;10.35;;;;;;;7.08;100.00;100886.25;5207934;28;20068;-74
2023/12/09 04:21:30;;;;;;;36.60;9.10;;;;;;;7.19;100.00;100875.44;5210337;28;20033;-74
2023/12/09 04:24:01;;;;;;;48.28;9.60;;;;;;;7.07;100.00;100877.41;5208209;28;20108;-74
2023/12/09 04:26:32;;;;;;;44.85;9.85;;;;;;;7.12;100.00;100866.31;5210104;28;20039;-74
2023/12/09 04:29:02;;;;;;;47.72;12.10;;;;;;;7.17;100.00;100856.88;5204503;28;20021;-74
2023/12/09 04:31:33;;;;;;;49.58;11.77;;;;;;;7.18;100.00;100857.75;5204650;28;20038;-74
2023/12/09 04:34:03;;;;;;;46.75;10.52;;;;;;;7.19;100.00;100846.91;5203589;28;20029;-73
2023/12/09 04:36:34;;;;;;;43.40;11.05;;;;;;;7.27;100.00;100852.34;5211956;28;20124;-73
2023/12/09 04:39:05;;;;;;;57.75;11.05;;;;;;;7.33;100.00;100863.44;5205576;28;20052;-73
2023/12/09 04:41:35;;;;;;;46.83;11.00;;;;;;;7.28;100.00;100861.22;5215430;28;20036;-73
2023/12/09 04:44:06;;;;;;;42.33;10.00;;;;;;;7.33;100.00;100853.63;5208386;28;20021;-73
2023/12/09 04:46:37;;;;;;;35.22;9.98;;;;;;;7.21;100.00;100844.94;5214174;28;20047;-73
2023/12/09 04:49:07;;;;;;;46.13;10.35;;;;;;;7.25;100.00;100843.66;5207034;28;20029;-73
2023/12/09 04:51:38;;;;;;;36.20;10.88;;;;;;;7.29;100.00;100835.38;5221692;28;20029;-73
2023/12/09 04:54:08;;;;;;;47.28;9.55;;;;;;;7.30;100.00;100835.22;5216754;28;20243;-73
2023/12/09 04:56:39;;;;;;;36.08;9.57;;;;;;;7.34;100.00;100833.13;5211415;28;20078;-73
2023/12/09 04:59:09;;;;;;;49.10;9.98;;;;;;;7.41;100.00;100823.53;5210009;28;20491;-73
2023/12/09 05:01:40;;;;;;;58.38;9.13;;;;;;;7.53;100.00;100825.03;5211076;28;20040;-73
2023/12/09 05:04:10;;;;;;;42.22;10.25;;;;;;;7.51;100.00;100819.00;5206157;28;20100;-73
2023/12/09 05:06:40;;;;;;;43.55;8.65;;;;;;;7.49;100.00;100821.81;5210159;28;20028;-72
2023/12/09 05:09:12;;;;;;;48.03;9.10;;;;;;;7.50;100.00;100812.81;5215412;28;20522;-71
2023/12/09 05:11:42;;;;;;;40.47;8.02;;;;;;;7.51;100.00;100813.66;5216518;28;20472;-71
2023/12/09 05:14:13;;;;;;;35.60;9.32;;;;;;;7.48;100.00;100814.81;5217918;28;20031;-71
2023/12/09 05:16:43;;;;;;;37.72;8.02;;;;;;;7.50;100.00;100815.47;5214748;28;20056;-73
2023/12/09 05:19:14;;;;;;;41.72;8.60;;;;;;;7.50;100.00;100815.47;5210845;28;20025;-73
2023/12/09 05:21:44;;;;;;;48.22;8.70;;;;;;;7.54;100.00;100816.03;5216432;28;20031;-73
2023/12/09 05:24:15;;;;;;;44.53;8.32;;;;;;;7.61;100.00;100822.47;5207292;28;20025;-73
2023/12/09 05:26:45;;;;;;;44.75;7.70;;;;;;;7.68;100.00;100822.69;5203101;28;20017;-73
2023/12/09 05:29:16;;;;;;;32.20;8.73;;;;;;;7.68;100.00;100817.34;5210507;28;20036;-74
2023/12/09 05:31:46;;;;;;;28.70;6.70;;;;;;;7.67;100.00;100805.84;5214462;28;20055;-74
2023/12/09 05:34:17;;;;;;;32.92;6.70;;;;;;;7.77;100.00;100821.81;5202542;28;20025;-74
2023/12/09 05:36:47;;;;;;;35.83;7.22;;;;;;;7.84;100.00;100816.75;5214721;28;20067;-74
2023/12/09 05:39:18;;;;;;;32.17;8.10;;;;;;;7.85;100.00;100811.25;5213877;28;20468;-74
2023/12/09 05:41:49;;;;;;;32.75;6.28;;;;;;;7.89;100.00;100807.28;5211512;28;20045;-74
2023/12/09 05:44:20;;;;;;;29.98;7.43;;;;;;;8.01;100.00;100815.91;5211108;28;20473;-74
2023/12/09 05:46:50;;;;;;;34.92;7.43;;;;;;;8.01;100.00;100824.78;5219460;28;20035;-71
2023/12/09 05:49:21;;;;;;;38.58;7.07;;;;;;;8.04;100.00;100818.31;5210984;28;20605;-71
2023/12/09 05:51:51;;;;;;;27.77;6.45;;;;;;;8.14;100.00;100812.91;5202726;28;20021;-71
2023/12/09 05:54:22;;;;;;;27.38;5.53;;;;;;;8.13;100.00;100816.53;5210089;28;20091;-71
2023/12/09 05:56:52;;;;;;;25.40;6.00;;;;;;;8.09;100.00;100791.97;5200438;28;20033;-71
2023/12/09 05:59:23;;;;;;;33.03;6.35;;;;;;;8.17;100.00;100792.03;5205965;28;20021;-71
2023/12/09 06:01:55;;;;;;;36.08;7.32;;;;;;;8.10;100.00;100790.13;5212542;28;20273;-71
2023/12/09 06:04:26;;;;;;;26.45;5.72;;;;;;;8.13;100.00;100790.66;5216662;28;20043;-71
2023/12/09 06:06:56;;;;;;;32.00;5.13;;;;;;;8.19;100.00;100795.41;5210214;28;20030;-70
2023/12/09 06:09:27;;;;;;;31.98;5.82;;;;;;;8.27;100.00;100773.25;5212023;28;20025;-70
2023/12/09 06:11:57;;;;;;;27.88;5.63;;;;;;;8.24;100.00;100760.22;5208534;28;20116;-70
2023/12/09 06:14:28;;;;;;;18.13;5.25;;;;;;;8.14;100.00;100754.94;5215673;28;20025;-76
2023/12/09 06:16:58;;;;;;;28.08;5.75;;;;;;;8.12;100.00;100756.06;5208101;28;20401;-76
2023/12/09 06:19:29;;;;;;;29.13;5.45;;;;;;;8.18;100.00;100758.13;5204717;28;20041;-76
2023/12/09 06:21:59;;;;;;;37.13;6.75;;;;;;;8.12;100.00;100748.91;5211543;28;20025;-75
2023/12/09 06:24:31;;;;;;;26.17;6.47;;;;;;;8.18;100.00;100747.44;5209935;28;20044;-75
2023/12/09 06:27:03;;;;;;;31.35;5.82;;;;;;;8.11;100.00;100733.03;5214063;28;20037;-74
2023/12/09 06:29:35;;;;;;;29.52;5.15;;;;;;;8.10;100.00;100737.53;5208615;28;20104;-74
2023/12/09 06:32:07;;;;;;;18.35;5.60;;;;;;;8.15;100.00;100734.41;5214173;28;20021;-74
2023/12/09 06:34:37;;;;;;;27.58;4.63;;;;;;;8.20;100.00;100724.94;5217011;28;20028;-74
2023/12/09 06:37:08;;;;;;;26.58;4.78;;;;;;;8.17;100.00;100706.53;5202315;28;20203;-75
2023/12/09 06:39:38;;;;;;;15.80;4.35;;;;;;;8.19;100.00;100699.22;5206322;28;20052;-74
2023/12/09 06:42:09;;;;;;;25.15;5.50;;;;;;;8.15;100.00;100715.69;5206189;28;20017;-74
2023/12/09 06:44:40;;;;;;;30.85;4.18;;;;;;;8.15;100.00;100697.84;5207590;28;20130;-75
2023/12/09 06:47:10;;;;;;;21.88;4.80;;;;;;;8.15;100.00;100692.47;5209539;28;20013;-76
2023/12/09 06:49:41;;;;;;;20.15;4.00;;;;;;;8.22;100.00;100690.84;5211734;28;20075;-76
2023/12/09 06:52:11;;;;;;;21.05;4.28;;;;;;;8.09;100.00;100678.91;5206163;28;20024;-76
2023/12/09 06:54:42;;;;;;;27.38;4.57;;;;;;;8.13;100.00;100680.25;5213570;28;20074;-76
2023/12/09 06:57:12;;;;;;;19.38;4.00;;;;;;;8.19;100.00;100675.16;5202424;28;20386;-76
2023/12/09 06:59:43;;;;;;;15.70;3.80;;;;;;;8.26;100.00;100684.22;5209578;28;20025;-76
2023/12/09 07:02:14;;;;;;;27.70;4.22;;;;;;;8.21;100.00;100680.34;5205611;28;20033;-76
2023/12/09 07:04:44;;;;;;;15.93;3.05;;;;;;;8.29;100.00;100661.69;5208035;28;20052;-76
2023/12/09 07:07:15;;;;;;;29.45;4.93;;;;;;;8.37;100.00;100659.09;5203113;28;20025;-76
2023/12/09 07:09:45;;;;;;;22.02;3.63;;;;;;;8.33;100.00;100652.34;5217127;28;20055;-76
2023/12/09 07:12:16;;;;;;;14.70;3.55;;;;;;;8.30;100.00;100644.66;5211946;28;20021;-75
2023/12/09 07:14:47;;;;;;;21.20;3.20;;;;;;;8.21;100.00;100635.75;5213001;28;20033;-75
2023/12/09 07:17:17;;;;;;;23.83;2.88;;;;;;;8.31;100.00;100624.94;5205946;28;20058;-75
2023/12/09 07:19:48;;;;;;;22.67;3.42;;;;;;;8.31;100.00;100619.59;5209277;28;20414;-76
2023/12/09 07:22:19;;;;;;;21.25;3.30;;;;;;;8.34;100.00;100627.31;5205622;28;20018;-76
2023/12/09 07:24:50;;;;;;;15.80;3.13;;;;;;;8.46;100.00;100619.91;5208446;28;20108;-75
2023/12/09 07:27:20;;;;;;;19.25;3.35;;;;;;;8.41;100.00;100607.00;5212497;28;20075;-76
2023/12/09 07:29:51;;;;;;;25.88;3.63;;;;;;;8.43;100.00;100614.84;5202736;28;20075;-76
2023/12/09 07:32:21;;;;;;;20.08;3.60;;;;;;;8.36;100.00;100611.13;5208540;28;20056;-75
2023/12/09 07:34:52;;;;;;;19.83;4.30;;;;;;;8.40;100.00;100602.66;5210679;28;20124;-76
2023/12/09 07:37:22;;;;;;;21.25;3.40;;;;;;;8.40;100.00;100602.66;5211193;28;20439;-76
2023/12/09 07:39:53;;;;;;;18.27;3.70;;;;;;;8.48;100.00;100585.81;5224060;28;20483;-76
2023/12/09 07:42:23;;;;;;;20.33;4.25;;;;;;;8.45;100.00;100586.97;5204576;28;20021;-76
2023/12/09 07:44:54;;;;;;;15.80;3.88;;;;;;;8.56;100.00;100578.69;5200110;28;20041;-76
2023/12/09 07:47:25;;;;;;;19.50;3.55;;;;;;;8.51;100.00;100574.81;5209901;28;20461;-76
2023/12/09 07:49:56;;;;;;;23.33;3.47;;;;;;;8.54;100.00;100578.00;5199646;28;20084;-76
2023/12/09 07:52:26;;;;;;;15.00;2.90;;;;;;;8.55;100.00;100569.00;5210985;28;20029;-75
2023/12/09 07:54:57;;;;;;;16.90;3.72;;;;;;;8.63;100.00;100560.16;5210831;28;20471;-76
2023/12/09 07:57:29;;;;;;;17.13;3.55;;;;;;;8.67;100.00;100561.50;5205016;28;20392;-76
2023/12/09 08:00:00;;;;;;;21.35;3.85;;;;;;;8.70;100.00;100561.19;5207653;28;20040;-76
2023/12/09 08:02:31;;;;;;;17.65;3.58;;;;;;;8.69;100.00;100548.84;5210010;28;20072;-76
2023/12/09 08:05:01;;;;;;;19.50;3.95;;;;;;;8.73;100.00;100546.66;5202793;28;20492;-76
2023/12/09 08:07:32;;;;;;;24.95;3.22;;;;;;;8.71;100.00;100535.28;5209460;28;20024;-76
2023/12/09 08:10:03;;;;;;;20.17;4.03;;;;;;;8.77;100.00;100543.50;5207717;28;20014;-76
2023/12/09 08:12:33;;;;;;;16.52;3.55;;;;;;;8.69;100.00;100551.50;5209563;28;20040;-76
2023/12/09 08:15:05;;;;;;;17.63;4.40;;;;;;;8.85;100.00;100544.53;5211015;28;20040;-76
2023/12/09 08:17:35;;;;;;;21.05;3.90;;;;;;;8.82;100.00;100538.50;5213806;28;20123;-76
2023/12/09 08:20:08;;;;;;;18.15;3.38;;;;;;;8.76;100.00;100525.78;5208056;28;20026;-76
2023/12/09 08:22:39;;;;;;;27.92;3.13;;;;;;;8.74;100.00;100529.63;5210904;28;20025;-76
2023/12/09 08:25:09;;;;;;;23.05;3.17;;;;;;;8.78;100.00;100526.44;5214298;28;20752;-76
2023/12/09 08:27:40;;;;;;;20.98;3.67;;;;;;;8.82;100.00;100524.28;5218391;28;20129;-76
2023/12/09 08:30:12;;;;;;;16.67;3.00;;;;;;;8.86;100.00;100525.66;5210011;28;20035;-76
2023/12/09 08:32:43;;;;;;;25.70;3.92;;;;;;;8.85;100.00;100531.16;5215080;28;20037;-76
2023/12/09 08:35:13;;;;;;;21.23;4.18;;;;;;;8.92;100.00;100532.19;5208491;28;20021;-76
2023/12/09 08:37:44;;;;;;;14.70;3.20;;;;;;;8.94;100.00;100525.69;5227133;28;20040;-74
2023/12/09 08:40:14;;;;;;;17.50;3.80;;;;;;;8.84;100.00;100519.63;5207183;28;20059;-76
2023/12/09 08:42:45;;;;;;;17.95;4.97;;;;;;;8.96;100.00;100518.31;5210123;28;20045;-72
2023/12/09 08:45:17;;;;;;;20.02;3.10;;;;;;;9.05;100.00;100497.78;5211389;28;20036;-76
2023/12/09 08:47:47;;;;;;;14.93;4.30;;;;;;;9.13;100.00;100511.16;5200540;28;20497;-76
2023/12/09 08:50:18;;;;;;;18.20;4.15;;;;;;;9.16;100.00;100516.19;5212957;28;20024;-76
2023/12/09 08:52:48;;;;;;;25.75;4.20;;;;;;;9.10;100.00;100499.97;5208460;28;20037;-75
2023/12/09 08:55:19;;;;;;;20.25;4.15;;;;;;;9.00;100.00;100495.59;5214619;28;20104;-76
2023/12/09 08:57:51;;;;;;;17.40;3.75;;;;;;;8.99;100.00;100504.63;5210463;28;20032;-77
2023/12/09 09:00:25;;;;;;;28.30;3.75;;;;;;;8.95;100.00;100492.56;5210106;28;20049;-76
2023/12/09 09:02:56;;;;;;;19.75;2.70;;;;;;;8.92;100.00;100492.03;5210962;28;20074;-76
2023/12/09 09:05:26;;;;;;;18.63;3.65;;;;;;;8.96;100.00;100483.53;5209959;28;20029;-76
2023/12/09 09:07:57;;;;;;;22.67;3.40;;;;;;;8.98;100.00;100469.97;5211751;28;20028;-76
2023/12/09 09:10:28;;;;;;;15.07;3.58;;;;;;;9.06;100.00;100468.16;5211147;28;20117;-76
2023/12/09 09:12:59;;;;;;;21.92;3.92;;;;;;;9.02;100.00;100440.06;5210254;28;20395;-76
2023/12/09 09:15:30;;;;;;;20.98;3.35;;;;;;;9.11;100.00;100426.69;5206430;28;20037;-76
2023/12/09 09:18:01;;;;;;;16.13;3.00;;;;;;;9.13;100.00;100435.38;5209432;28;20064;-76
2023/12/09 09:20:31;;;;;;;12.77;3.00;;;;;;;9.13;100.00;100420.16;5213565;28;20060;-76
2023/12/09 09:23:02;;;;;;;15.85;3.47;;;;;;;9.20;100.00;100401.59;5210634;28;20025;-76
2023/12/09 09:25:32;;;;;;;20.05;3.70;;;;;;;9.27;100.00;100399.91;5210540;28;20130;-76
2023/12/09 09:28:03;;;;;;;14.10;3.10;;;;;;;9.31;100.00;100390.53;5212304;28;20033;-77
2023/12/09 09:30:34;;;;;;;21.83;3.45;;;;;;;9.37;100.00;100381.84;5205932;28;20033;-76
2023/12/09 09:33:06;;;;;;;11.63;2.60;;;;;;;9.27;100.00;100373.16;5206614;28;20072;-74
2023/12/09 09:35:36;;;;;;;21.00;3.53;;;;;;;9.38;100.00;100367.44;5214081;28;20506;-74
2023/12/09 09:38:07;;;;;;;11.52;2.53;;;;;;;9.36;100.00;100365.94;5205553;28;20026;-73
2023/12/09 09:40:37;;;;;;;11.93;3.53;;;;;;;9.41;100.00;100358.25;5212876;28;20036;-73
2023/12/09 09:43:12;;;;;;;16.55;2.85;;;;;;;9.44;100.00;100348.03;5208400;28;20029;-74
2023/12/09 09:45:45;;;;;;;10.40;2.05;;;;;;;9.49;100.00;100342.16;5207860;28;20384;-74
2023/12/09 09:48:17;;;;;;;12.02;2.72;;;;;;;9.53;100.00;100346.16;5210165;28;20025;-74
2023/12/09 09:50:52;;;;;;;11.07;2.90;;;;;;;9.50;100.00;100351.88;5211880;28;20033;-74
2023/12/09 09:53:34;;;;;;;14.27;2.33;;;;;;;9.52;100.00;100341.81;5211605;28;20028;-74
2023/12/09 09:56:07;;;;;;;15.30;2.33;;;;;;;9.55;100.00;100344.16;5207043;28;20039;-73
2023/12/09 09:58:38;;;;;;;13.95;2.38;;;;;;;9.46;100.00;100329.94;5213003;28;20340;-74
2023/12/09 10:01:11;;;;;;;10.35;2.03;;;;;;;9.48;100.00;100327.91;5210761;28;20235;-74
2023/12/09 10:03:42;;;;;;;11.00;2.53;;;;;;;9.48;100.00;100317.22;5206569;28;20550;-76
2023/12/09 10:06:14;;;;;;;17.52;2.90;;;;;;;9.36;100.00;100312.41;5214391;28;20029;-77
2023/12/09 10:08:44;;;;;;;13.90;2.05;;;;;;;9.27;100.00;100299.03;5208434;28;20034;-77
2023/12/09 10:11:15;;;;;;;9.38;1.90;;;;;;;9.20;100.00;100287.34;5213413;28;20028;-77
2023/12/09 10:13:46;;;;;;;14.20;1.92;;;;;;;9.20;100.00;100273.13;5205117;28;20308;-77
2023/12/09 10:16:17;;;;;;;6.82;2.00;;;;;;;9.15;100.00;100275.50;5213765;28;20044;-77
2023/12/09 10:18:47;;;;;;;15.82;3.03;;;;;;;9.11;100.00;100266.13;5207725;28;20029;-77
2023/12/09 10:21:18;;;;;;;9.18;2.00;;;;;;;9.03;100.00;100256.25;5204362;28;20033;-77
2023/12/09 10:23:48;;;;;;;9.50;2.30;;;;;;;9.04;100.00;100253.44;5212672;28;20029;-77
2023/12/09 10:26:19;;;;;;;15.10;2.20;;;;;;;9.10;100.00;100251.91;5207580;28;20037;-78
2023/12/09 10:28:50;;;;;;;12.68;2.28;;;;;;;8.99;100.00;100238.91;5213667;28;20033;-77
2023/12/09 10:31:21;;;;;;;9.05;1.75;;;;;;;8.95;100.00;100219.69;5206181;28;20014;-77
2023/12/09 10:33:51;;;;;;;6.10;1.35;;;;;;;8.91;100.00;100212.16;5209869;28;20040;-77
2023/12/09 10:36:23;;;;;;;10.32;2.22;;;;;;;8.98;100.00;100205.09;5212644;28;20036;-77
2023/12/09 10:38:53;;;;;;;6.82;1.88;;;;;;;8.91;100.00;100191.59;5207561;28;20380;-77
2023/12/09 10:41:25;;;;;;;4.05;1.65;;;;;;;8.78;100.00;100180.59;5209796;28;20025;-77
2023/12/09 10:43:56;;;;;;;4.38;1.45;;;;;;;8.91;100.00;100175.53;5210152;28;20036;-77
2023/12/09 10:46:26;;;;;;;9.23;1.55;;;;;;;8.88;100.00;100170.53;5212031;28;20090;-77
2023/12/09 10:48:58;;;;;;;4.40;1.25;;;;;;;8.88;100.00;100149.13;5212260;28;20499;-77
2023/12/09 10:51:29;;;;;;;7.18;1.35;;;;;;;8.87;100.00;100123.38;5208141;28;20453;-77
2023/12/09 10:53:59;;;;;;;5.22;1.70;;;;;;;8.91;100.00;100099.81;5208591;28;20017;-77
2023/12/09 10:56:30;;;;;;;4.88;1.27;;;;;;;8.87;100.00;100085.13;5213007;28;20036;-77
2023/12/09 10:59:02;;;;;;;4.32;1.02;;;;;;;8.89;100.00;100073.25;5205010;28;20022;-77
2023/12/09 11:01:33;;;;;;;8.93;1.48;;;;;;;8.92;100.00;100066.69;5211486;28;20426;-77
2023/12/09 11:04:05;;;;;;;3.65;1.10;;;;;;;8.88;100.00;100043.97;5207823;28;20040;-77
2023/12/09 11:06:37;;;;;;;8.43;1.15;;;;;;;8.76;100.00;100033.66;5197549;28;20025;-77
2023/12/09 11:09:09;;;;;;;4.82;1.23;;;;;;;8.82;100.00;100021.44;5207836;28;20036;-77
2023/12/09 11:11:41;;;;;;;9.85;1.17;;;;;;;8.78;100.00;100022.78;5213432;28;20032;-77
2023/12/09 11:14:12;;;;;;;4.18;2.13;;;;;;;8.87;100.00;99991.50;5205162;28;20021;-77
2023/12/09 11:16:43;;;;;;;2.17;1.00;;;;;;;8.72;100.00;99959.31;5209692;28;20036;-77
2023/12/09 11:19:16;;;;;;;5.93;1.02;;;;;;;8.74;100.00;99958.16;5208543;28;20231;-77
2023/12/09 11:21:47;;;;;;;3.90;1.25;;;;;;;8.66;100.00;99958.19;5209067;28;20033;-77
2023/12/09 11:24:18;;;;;;;3.35;0.80;;;;;;;8.70;100.00;99935.44;5208093;28;20400;-76
2023/12/09 11:26:49;;;;;;;7.25;1.50;;;;;;;8.55;100.00;99932.69;5209033;28;20032;-77
2023/12/09 11:29:20;;;;;;;7.88;1.08;;;;;;;8.61;100.00;99938.31;5203184;28;20029;-77
2023/12/09 11:31:51;;;;;;;4.72;1.13;;;;;;;8.55;100.00;99931.84;5220380;28;20029;-77